Saturday, November 18, 2017, 6:57 AM EST
Back to Local

KGFL, Floyd Bennett Memorial Airport

Location: Queensbury, NY, United States Lat: 43.333
Local Time: 6:57 AM EST (11:57 GMT) Lon: -73.617
Time Zone: US/Eastern Elev: 328 ft

Show me the last for .
Show Decoded

2017-11-18 05:53 METAR KGFL 181053Z AUTO 00000KT 10SM CLR M08/M08 A2994 RMK AO2 SLP150 T10781083
                 =
2017-11-18 04:53 METAR KGFL 180953Z AUTO 00000KT 10SM FEW110 M08/M09 A2996 RMK AO2 SLP157
                 T10831094 =
2017-11-18 03:53 METAR KGFL 180853Z AUTO 00000KT 10SM CLR M08/M09 A2997 RMK AO2 SLP159 T10781094
                 58022 =
2017-11-18 02:53 METAR KGFL 180753Z AUTO 00000KT 10SM CLR M08/M09 A3001 RMK AO2 SLP171 T10781094
                 =
2017-11-18 01:53 METAR KGFL 180653Z AUTO 00000KT 10SM CLR M07/M09 A3003 RMK AO2 SLP178 T10721089
                 =
2017-11-18 00:53 METAR KGFL 180553Z AUTO 26003KT 10SM CLR M08/M09 A3004 RMK AO2 SLP182 T10781089
                 11006 21083 58005 =
2017-11-17 23:53 METAR KGFL 180453Z AUTO 00000KT 10SM CLR M07/M09 A3004 RMK AO2 SLP183 T10671089
                 400441072 =
2017-11-17 22:53 METAR KGFL 180353Z AUTO 00000KT 10SM CLR M06/M09 A3006 RMK AO2 SLP189 T10611089
                 =
2017-11-17 21:53 METAR KGFL 180253Z AUTO 00000KT 10SM CLR M05/M09 A3006 RMK AO2 SLP187 T10501089
                 56012 =
2017-11-17 20:53 METAR KGFL 180153Z AUTO 07003KT 10SM CLR M04/M09 A3006 RMK AO2 SLP190 T10441094
                 =
2017-11-17 19:53 METAR KGFL 180053Z AUTO 30004KT 10SM CLR M01/M09 A3007 RMK AO2 SLP191 T10111094
                 =
2017-11-17 18:53 METAR KGFL 172353Z AUTO 34007KT 10SM CLR M01/M09 A3009 RMK AO2 SLP198 T10111094
                 10044 21011 53013 =
2017-11-17 17:53 METAR KGFL 172253Z AUTO 35006KT 10SM CLR M01/M09 A3007 RMK AO2 SLP190 T10061094
                 =
2017-11-17 16:53 METAR KGFL 172153Z AUTO 33007KT 10SM CLR 01/M10 A3006 RMK AO2 SLP188 T00111100 =
2017-11-17 15:53 METAR KGFL 172053Z AUTO 35009KT 10SM CLR 03/M11 A3005 RMK AO2 SLP184 T00281106
                 53008 =
2017-11-17 14:53 METAR KGFL 171953Z AUTO 01012KT 10SM CLR 04/M10 A3003 RMK AO2 SLP176 T00391100 =
2017-11-17 13:53 METAR KGFL 171853Z AUTO 03010KT 10SM CLR 03/M09 A3002 RMK AO2 SLP172 T00331089 =
2017-11-17 12:53 METAR KGFL 171753Z AUTO 33008KT 10SM CLR 04/M09 A3003 RMK AO2 SLP175 T00391094
                 10039 20000 56016 =
2017-11-17 11:53 METAR KGFL 171653Z AUTO 01011KT 10SM CLR 03/M07 A3004 RMK AO2 SLP177 T00281072 =
2017-11-17 10:53 METAR KGFL 171553Z AUTO 33012G17KT 10SM FEW035 02/M07 A3006 RMK AO2 SLP184
                 T00221067 =
2017-11-17 09:53 METAR KGFL 171453Z AUTO 36011KT 10SM OVC034 01/M06 A3008 RMK AO2 SLP191
                 T00111056 51021 =
2017-11-17 08:53 METAR KGFL 171353Z AUTO 33015G25KT 10SM OVC033 01/M06 A3007 RMK AO2 SLP189
                 T00061061 =
2017-11-17 07:53 METAR KGFL 171253Z AUTO 33006KT 10SM OVC030 01/M05 A3005 RMK AO2 SLP182
                 T00061050 =

Support USWX by starting your Amazon purchase here.